NEODyS-2

Near Earth Objects - Dynamic Site
NEODyS ∴ Observatories ∴ Site 691 ∴ Obs & residuals
Contact »
691  ▹ 
OBSERVATIONS AND RESIDUALS

691-Steward Observatory, Kitt Peak-Spacewatch

Detections | Residuals | Detections & Residuals

[1-200] [201-400] [401-600] [601-800] [801-1000] [1001-1200] [1201-1400] [1401-1600] [1601-1800] [1801-2000] [2001-2200] [2201-2400] [2401-2600] [2601-2800] [2801-3000] [3001-3200] [3201-3400] [3401-3600] [3601-3800] [3801-4000] [4001-4200] [4201-4400] [4401-4600] [4601-4800] [4801-5000] [5001-5200] [5201-5400] [5401-5600] [5601-5800] [5801-6000] [6001-6200] [6201-6400] [6401-6600] [6601-6800] [6801-7000] [7001-7200] [7201-7400] [7401-7600] [7601-7800] [7801-8000] [8001-8200] [8201-8400] [8401-8600] [8601-8800] [8801-9000] [9001-9200] [9201-9400] [9401-9600] [9601-9800] [9801-10000] [10001-10200] [10201-10400] [10401-10600] [10601-10800] [10801-11000] [11001-11200] [11201-11400] [11401-11600] [11601-11800] [11801-12000] [12001-12200] [12201-12400] [12401-12600] [12601-12800] [12801-13000] [13001-13200] [13201-13400] [13401-13600] [13601-13800] [13801-14000] [14001-14200] [14201-14400] [14401-14600] [14601-14800] [14801-15000] [15001-15200] [15201-15400] [15401-15600] [15601-15800] [15801-16000] [16001-16200] [16201-16400] [16401-16600] [16601-16800] [16801-17000] [17001-17200] [17201-17400] [17401-17600] [17601-17800] [17801-18000] [18001-18200] [18201-18400] [18401-18600] [18601-18800] [18801-19000] [19001-19200] [19201-19400] [19401-19600] [19601-19800] [19801-20000] [20001-20200] [20201-20400] [20401-20600] [20601-20800] [20801-21000] [21001-21200] [21201-21400] [21401-21600] [21601-21800] [21801-22000] [22001-22200] [22201-22400] [22401-22600] [22601-22800] [22801-23000] [23001-23200] [23201-23400] [23401-23600] [23601-23800] [23801-24000] [24001-24200] [24201-24400] [24401-24600] [24601-24800] [24801-25000] [25001-25200] [25201-25400] [25401-25600] [25601-25800] [25801-26000] [26001-26200] [26201-26400] [26401-26600] [26601-26800] [26801-27000] [27001-27200] [27201-27400] [27401-27600] [27601-27800] [27801-28000] [28001-28200] [28201-28400] [28401-28600] [28601-28800] [28801-29000] [29001-29200] [29201-29400] [29401-29600] [29601-29800] [29801-30000] [30001-30200] [30201-30400] [30401-30600] [30601-30800] [30801-31000] [31001-31200] [31201-31400] [31401-31600] [31601-31800] [31801-32000] [32001-32200] [32201-32400] [32401-32600] [32601-32800] [32801-33000] [33001-33200] [33201-33400] [33401-33600] [33601-33800] [33801-34000] [34001-34200] [34201-34400] [34401-34600] [34601-34800] [34801-35000] [35001-35200] [35201-35400] [35401-35600] [35601-35800] [35801-36000] [36001-36200] [36201-36400] [36401-36600] [36601-36800] [36801-37000] [37001-37200] [37201-37400] [37401-37600] [37601-37800] [37801-38000] [38001-38200] [38201-38400] [38401-38600] [38601-38800] [38801-39000] [39001-39200] [39201-39400] [39401-39600] [39601-39800] [39801-40000] [40001-40200] [40201-40400] [40401-40600] [40601-40800] [40801-41000] [41001-41200] [41201-41400] [41401-41600] [41601-41800] [41801-42000] [42001-42200] [42201-42400] [42401-42600] [42601-42800] [42801-43000] [43001-43200] [43201-43400] [43401-43600] [43601-43800] [43801-44000] [44001-44200] [44201-44400] [44401-44600] [44601-44800] [44801-45000] [45001-45200] [45201-45400] [45401-45600] [45601-45800] [45801-46000] [46001-46200] [46201-46400] [46401-46600] [46601-46800] [46801-47000] [47001-47200] [47201-47400] [47401-47600] [47601-47800] [47801-48000] [48001-48200] [48201-48400] [48401-48600] [48601-48800] [48801-49000] [49001-49200] [49201-49400] [49401-49600] [49601-49800] [49801-50000] [50001-50200] [50201-50388]

Designation T Tech N Date Right Ascension Declination Apparent Magnitude Star Catalog Site code χ Used A Used M
yr-mo-day precision hr:min:sec precision rms F bias residual deg min sec precision rms F bias residual mag/col rms residual
2017DC36 O C 2018-04-15.23420 1.000E-05 12:01:36.340 1.500E-01 0.500 F 0.392 -0.370 -26° 32' 32.20" 1.000E-01 0.500 F 0.266 -0.127 20.5 V 0.70 0.01 o 691 0.80 Yes Yes
2018GW3 O C K 2018-04-15.23748 1.000E-05 11:37:20.770 1.500E-01 0.500 F 0.160 -0.175 +08° 21' 25.30" 1.000E-01 0.500 F 0.143 0.591 o 691 1.25 Yes No
2017DC36 O C 2018-04-15.24670 1.000E-05 12:01:33.770 1.500E-01 0.500 F 0.392 -0.522 -26° 32' 14.60" 1.000E-01 0.500 F 0.266 -0.365 20.4 V 0.70 -0.09 o 691 1.30 Yes Yes
2018FS3 O C 2018-04-15.25062 1.000E-05 11:10:39.630 1.500E-01 0.500 F 0.096 -0.039 +10° 36' 49.10" 1.000E-01 0.500 F 0.132 0.127 19.5 V 0.70 -0.02 o 691 0.27 Yes Yes
2018EM2 O C 2018-04-15.25319 1.000E-05 10:57:10.200 1.500E-01 0.500 F 0.094 -0.241 +26° 23' 54.30" 1.000E-01 0.500 F 0.155 0.209 20.3 V 0.70 -0.22 o 691 0.64 Yes Yes
2018FS1 O C K 2018-04-15.25556 1.000E-05 10:32:12.500 1.500E-01 0.500 F 0.121 -0.167 +25° 10' 18.60" 1.000E-01 0.500 F 0.257 -0.180 o 691 0.49 Yes No
2018FS3 O C 2018-04-15.26022 1.000E-05 11:10:38.650 1.500E-01 0.500 F 0.096 -0.164 +10° 37' 13.20" 1.000E-01 0.500 F 0.132 0.230 19.3 V 0.70 -0.22 o 691 0.57 Yes Yes
2018EM2 O C 2018-04-15.26268 1.000E-05 10:57:09.470 1.500E-01 0.500 F 0.094 -0.294 +26° 23' 52.10" 1.000E-01 0.500 F 0.155 0.465 20.4 V 0.70 -0.12 o 691 1.10 Yes Yes
2018FS1 O C K 2018-04-15.26504 1.000E-05 10:32:12.730 1.500E-01 0.500 F 0.121 0.109 +25° 10' 28.00" 1.000E-01 0.500 F 0.257 -0.356 o 691 0.75 Yes No
2018FS3 O C 2018-04-15.26961 1.000E-05 11:10:37.720 1.500E-01 0.500 F 0.096 0.092 +10° 37' 36.70" 1.000E-01 0.500 F 0.132 0.277 19.3 V 0.70 -0.22 o 691 0.59 Yes Yes
2018EM2 O C 2018-04-15.27200 1.000E-05 10:57:08.750 1.500E-01 0.500 F 0.094 -0.417 +26° 23' 49.50" 1.000E-01 0.500 F 0.155 0.310 20.2 V 0.70 -0.32 o 691 1.04 Yes Yes
2018FS1 O C K 2018-04-15.27436 1.000E-05 10:32:12.930 1.500E-01 0.500 F 0.121 -0.011 +25° 10' 37.50" 1.000E-01 0.500 F 0.257 -0.244 o 691 0.49 Yes No
2018GY3 O C K 2018-04-15.28244 1.000E-05 12:53:32.760 1.500E-01 0.500 F 0.299 -0.178 +01° 12' 53.60" 1.000E-01 0.500 F 0.282 -0.028 20.3 R 0.70 -0.40 o 691 0.38 Yes Yes
2002LE27 O C 2018-04-15.28749 1.000E-05 13:48:54.560 1.500E-01 0.500 F 0.292 -0.186 -13° 27' 42.60" 1.000E-01 0.500 F 0.217 0.468 21.2 V 0.70 0.33 o 691 1.02 Yes Yes
2018GY3 O C K 2018-04-15.29915 1.000E-05 12:53:32.340 1.500E-01 0.500 F 0.299 -0.217 +01° 12' 15.50" 1.000E-01 0.500 F 0.282 0.099 20.3 R 0.70 -0.41 o 691 0.50 Yes Yes
2002LE27 O C 2018-04-15.30430 1.000E-05 13:48:53.330 1.500E-01 0.500 F 0.292 -0.105 -13° 27' 35.60" 1.000E-01 0.500 F 0.217 -0.805 20.6 V 0.70 -0.27 o 691 1.63 Yes Yes
2018GY3 O C K 2018-04-15.31611 1.000E-05 12:53:31.940 1.500E-01 0.500 F 0.299 -0.175 +01° 11' 36.40" 1.000E-01 0.500 F 0.282 -0.400 o 691 0.91 Yes No
2002LE27 O C 2018-04-15.32145 1.000E-05 13:48:52.070 1.500E-01 0.500 F 0.292 -0.081 -13° 27' 26.50" 1.000E-01 0.500 F 0.217 -0.170 20.9 V 0.70 0.03 o 691 0.38 Yes Yes
2018GS3 O C K 2018-04-15.33708 1.000E-05 13:46:13.980 1.500E-01 0.500 F 0.204 0.410 -02° 01' 06.40" 1.000E-01 0.500 F 0.075 0.176 o 691 0.90 Yes No
2018GT3 O C K 2018-04-15.34139 1.000E-05 14:22:42.110 1.500E-01 0.500 F 0.093 -0.218 -07° 20' 19.40" 1.000E-01 0.500 F 0.059 0.169 o 691 0.56 Yes No
2018GS3 O C K 2018-04-15.35480 1.000E-05 13:46:18.200 1.500E-01 0.500 F 0.204 5.258 -01° 57' 34.50" 1.000E-01 0.500 F 0.075 -3.276 o 691 12.28 No No
2018GT3 O C K 2018-04-15.35905 1.000E-05 14:22:40.620 1.500E-01 0.500 F 0.093 0.182 -07° 17' 38.80" 1.000E-01 0.500 F 0.059 -0.073 o 691 0.40 Yes No
2018GS3 O C K 2018-04-15.37270 1.000E-05 13:46:21.840 1.500E-01 0.500 F 0.204 0.137 -01° 53' 52.10" 1.000E-01 0.500 F 0.075 0.222 o 691 0.53 Yes No
2018GT3 O C K 2018-04-15.37689 1.000E-05 14:22:39.100 1.500E-01 0.500 F 0.093 0.332 -07° 14' 56.80" 1.000E-01 0.500 F 0.059 -0.582 o 691 1.37 Yes No
2018CZ13 O C K 2018-04-15.38572 1.000E-05 14:09:31.710 1.500E-01 0.500 F 0.300 0.067 -24° 32' 25.50" 1.000E-01 0.500 F 0.358 -0.169 o 691 0.38 Yes No
2018GJ4 O C K 2018-04-15.40294 1.000E-05 14:45:00.750 1.500E-01 0.500 F 0.008 0.093 -19° 51' 24.20" 1.000E-01 0.500 F 0.114 -0.259 o 691 0.56 Yes No
2018CZ13 O C K 2018-04-15.40547 1.000E-05 14:09:41.880 1.500E-01 0.500 F 0.300 -0.132 -24° 32' 47.20" 1.000E-01 0.500 F 0.358 0.594 o 691 1.25 Yes No
2018GJ4 O C K 2018-04-15.42253 1.000E-05 14:44:59.820 1.500E-01 0.500 F 0.008 -0.070 -19° 52' 28.40" 1.000E-01 0.500 F 0.114 -0.340 o 691 0.70 Yes No
2018GJ4 O C K 2018-04-15.44201 1.000E-05 14:44:58.930 1.500E-01 0.500 F 0.024 0.094 -19° 53' 31.60" 1.000E-01 0.500 F -0.009 0.201 o 691 0.45 Yes No
2018GE2 O C 2018-04-15.45279 1.000E-05 14:00:49.990 1.500E-01 0.500 F 0.223 -0.075 -04° 37' 14.00" 1.000E-01 0.500 F 0.140 0.466 19.1 V 0.70 0.00 o 691 0.95 Yes Yes
2018GE2 O C 2018-04-15.46002 1.000E-05 14:00:46.470 1.500E-01 0.500 F 0.223 -0.250 -04° 37' 44.60" 1.000E-01 0.500 F 0.140 0.433 19.2 V 0.70 0.10 o 691 1.01 Yes Yes
2018GE2 O C 2018-04-15.46706 1.000E-05 14:00:43.120 1.500E-01 0.500 F 0.223 0.043 -04° 38' 14.60" 1.000E-01 0.500 F 0.140 0.074 19.5 V 0.70 0.40 o 691 0.17 Yes Yes
2018GG2 O C K 2018-04-15.47023 1.000E-05 15:50:34.940 1.500E-01 0.500 F 0.105 -0.100 +29° 39' 41.00" 1.000E-01 0.500 F 0.246 -0.068 o 691 0.24 Yes No
2018GY1 O C K 2018-04-15.47324 1.000E-05 13:27:56.170 1.500E-01 0.500 F 0.255 -0.038 +25° 45' 09.00" 1.000E-01 0.500 F 0.209 0.236 o 691 0.48 Yes No
2018GG2 O C K 2018-04-15.47898 1.000E-05 15:50:32.480 1.500E-01 0.500 F 0.105 0.229 +29° 40' 10.60" 1.000E-01 0.500 F 0.246 0.064 o 691 0.48 Yes No
2018GY1 O C K 2018-04-15.48181 1.000E-05 13:27:54.450 1.500E-01 0.500 F 0.255 -0.059 +25° 45' 30.40" 1.000E-01 0.500 F 0.209 0.312 o 691 0.64 Yes No
2018EE O C K 2018-04-15.48439 1.000E-05 13:09:07.100 1.500E-01 0.500 F 0.396 0.221 +14° 27' 43.10" 1.000E-01 0.500 F 0.244 0.089 o 691 0.48 Yes No
2018GG2 O C K 2018-04-15.48753 1.000E-05 15:50:30.040 1.500E-01 0.500 F 0.105 0.043 +29° 40' 39.20" 1.000E-01 0.500 F 0.246 -0.083 o 691 0.19 Yes No
2018GY1 O C K 2018-04-15.49038 1.000E-05 13:27:52.750 1.500E-01 0.500 F 0.255 0.082 +25° 45' 51.50" 1.000E-01 0.500 F 0.209 0.100 o 691 0.26 Yes No
2018EE O C K 2018-04-15.49295 1.000E-05 13:09:07.740 1.500E-01 0.500 F 0.396 -0.282 +14° 27' 20.50" 1.000E-01 0.500 F 0.244 -0.141 o 691 0.63 Yes No
2018GY4 O C K 2018-04-16.20415 1.000E-05 09:21:58.940 1.500E-01 0.500 F 0.129 0.542 -21° 18' 15.90" 1.000E-01 0.500 F -0.115 0.322 20.0 R 0.70 -0.63 o 691 1.27 Yes Yes
2000AF205 O C K 2018-04-16.20758 1.000E-05 10:52:09.040 1.500E-01 0.500 F 0.091 0.149 +03° 03' 29.20" 1.000E-01 0.500 F 0.069 -0.309 19.8 R 0.70 -1.11 o 691 0.69 Yes Yes
2018GZ4 O C K 2018-04-16.21205 1.000E-05 11:12:44.560 1.500E-01 0.500 F 0.103 0.391 +02° 54' 46.00" 1.000E-01 0.500 F 0.119 -0.683 o 691 1.59 Yes No
2018GY4 O C K 2018-04-16.21924 1.000E-05 09:21:58.720 1.500E-01 0.500 F 0.129 -0.325 -21° 17' 49.70" 1.000E-01 0.500 F -0.115 -0.061 20.4 R 0.70 -0.23 o 691 0.67 Yes Yes
2000AF205 O C K 2018-04-16.22248 1.000E-05 10:52:07.430 1.500E-01 0.500 F 0.091 0.284 +03° 03' 46.00" 1.000E-01 0.500 F 0.069 0.217 19.8 R 0.70 -1.11 o 691 0.72 Yes Yes
2018GZ4 O C K 2018-04-16.22696 1.000E-05 11:12:44.210 1.500E-01 0.500 F 0.103 0.376 +02° 55' 05.30" 1.000E-01 0.500 F 0.119 -0.022 20.9 R 0.70 0.01 o 691 0.76 Yes Yes
2018GY4 O C K 2018-04-16.23404 1.000E-05 09:21:58.570 1.500E-01 0.500 F 0.129 -0.310 -21° 17' 23.50" 1.000E-01 0.500 F -0.115 0.051 20.9 R 0.70 0.27 o 691 0.63 Yes Yes
2000AF205 O C K 2018-04-16.23729 1.000E-05 10:52:05.790 1.500E-01 0.500 F 0.091 -0.229 +03° 04' 02.20" 1.000E-01 0.500 F 0.069 0.259 19.5 R 0.70 -1.41 o 691 0.69 Yes Yes
2018GZ4 O C K 2018-04-16.24176 1.000E-05 11:12:43.860 1.500E-01 0.500 F 0.103 0.302 +02° 55' 24.00" 1.000E-01 0.500 F 0.119 0.185 o 691 0.71 Yes No
2018GF4 O C K 2018-04-16.24834 1.000E-05 11:36:47.290 1.500E-01 0.500 F 0.414 0.028 +00° 24' 53.20" 1.000E-01 0.500 F 0.078 0.017 o 691 0.07 Yes No
2018FS3 O C 2018-04-16.25083 1.000E-05 11:09:15.370 1.500E-01 0.500 F 0.105 -0.422 +11° 19' 20.20" 1.000E-01 0.500 F 0.174 -0.078 19.4 V 0.70 -0.10 o 691 0.86 Yes Yes
2018GF4 O C K 2018-04-16.25479 1.000E-05 11:36:51.380 1.500E-01 0.500 F 0.414 0.241 +00° 24' 35.20" 1.000E-01 0.500 F 0.078 -0.249 o 691 0.70 Yes No
2018FS3 O C 2018-04-16.25724 1.000E-05 11:09:14.730 1.500E-01 0.500 F 0.105 -0.283 +11° 19' 36.80" 1.000E-01 0.500 F 0.174 0.016 19.5 V 0.70 0.00 o 691 0.57 Yes Yes
2018GF4 O C K 2018-04-16.26115 1.000E-05 11:36:55.380 1.500E-01 0.500 F 0.414 -0.076 +00° 24' 18.10" 1.000E-01 0.500 F 0.078 0.135 o 691 0.31 Yes No
2018FS3 O C 2018-04-16.26357 1.000E-05 11:09:14.100 1.500E-01 0.500 F 0.105 -0.135 +11° 19' 53.00" 1.000E-01 0.500 F 0.174 -0.075 19.5 V 0.70 0.00 o 691 0.31 Yes Yes
2018EM2 O C H 2018-04-16.26923 1.000E-05 10:56:03.120 1.500E-01 0.500 F 0.081 -0.100 +26° 19' 27.70" 1.000E-01 0.500 F 0.202 0.269 20.2 R 0.70 0.08 o 691 0.58 Yes Yes
2018FS1 O C K 2018-04-16.27174 1.000E-05 10:32:44.720 1.500E-01 0.500 F 0.206 -0.074 +25° 27' 30.80" 1.000E-01 0.500 F 0.247 -0.210 o 691 0.45 Yes No
2018DK3 O C K 2018-04-16.27698 1.000E-05 09:36:52.810 1.500E-01 0.500 F 0.131 -0.125 +19° 30' 39.70" 1.000E-01 0.500 F 0.416 0.217 21.0 R 0.70 -0.25 o 691 0.50 Yes Yes
2018FS1 O C K 2018-04-16.28516 1.000E-05 10:32:45.070 1.500E-01 0.500 F 0.206 -0.233 +25° 27' 43.90" 1.000E-01 0.500 F 0.247 -0.142 o 691 0.55 Yes No
2018DK3 O C K 2018-04-16.29041 1.000E-05 09:36:53.260 1.500E-01 0.500 F 0.131 0.192 +19° 30' 32.10" 1.000E-01 0.500 F 0.416 -0.557 21.0 R 0.70 -0.25 o 691 1.19 Yes Yes
2018EM2 O C H 2018-04-16.29609 1.000E-05 10:56:01.160 1.500E-01 0.500 F 0.081 -0.214 +26° 19' 18.90" 1.000E-01 0.500 F 0.202 -0.060 20.5 R 0.70 0.38 o 691 0.45 Yes Yes
2018FS1 O C K 2018-04-16.29860 1.000E-05 10:32:45.480 1.500E-01 0.500 F 0.206 0.324 +25° 27' 57.00" 1.000E-01 0.500 F 0.247 -0.042 o 691 0.66 Yes No
2018DK3 O C K 2018-04-16.30384 1.000E-05 09:36:53.670 1.500E-01 0.500 F 0.131 -0.145 +19° 30' 25.50" 1.000E-01 0.500 F 0.416 -0.308 21.3 R 0.70 0.05 o 691 0.68 Yes Yes
2018GE2 O C K 2018-04-16.31100 1.000E-05 13:56:29.820 1.500E-01 0.500 F 0.228 0.064 -05° 31' 40.30" 1.000E-01 0.500 F 0.100 0.407 o 691 0.83 Yes No
2018GT3 O C K 2018-04-16.31624 1.000E-05 14:21:31.000 1.500E-01 0.500 F 0.100 0.291 -04° 52' 58.00" 1.000E-01 0.500 F 0.084 -0.246 o 691 0.78 Yes No
2018GE2 O C K 2018-04-16.32576 1.000E-05 13:56:23.560 1.500E-01 0.500 F 0.228 0.059 -05° 32' 29.00" 1.000E-01 0.500 F 0.100 0.207 o 691 0.43 Yes No
2018GT3 O C K 2018-04-16.33101 1.000E-05 14:21:29.720 1.500E-01 0.500 F 0.100 0.148 -04° 50' 44.00" 1.000E-01 0.500 F 0.084 0.490 o 691 1.05 Yes No
2018GT3 O C K 2018-04-16.34554 1.000E-05 14:21:28.450 1.500E-01 0.500 F 0.100 -0.139 -04° 48' 33.10" 1.000E-01 0.500 F 0.084 0.293 o 691 0.67 Yes No
2018FV O C K 2018-04-16.35895 1.000E-05 13:52:58.770 1.500E-01 0.500 F 0.146 -0.229 -02° 34' 53.00" 1.000E-01 0.500 F 0.186 -0.022 o 691 0.51 Yes No
2018EE O C K 2018-04-16.37007 1.000E-05 13:10:20.160 1.500E-01 0.500 F 0.382 1.692 +13° 50' 30.50" 1.000E-01 0.500 F 0.278 -1.844 o 691 4.98 No No
2018EE O C K 2018-04-16.38463 1.000E-05 13:10:21.050 1.500E-01 0.500 F 0.382 0.205 +13° 49' 55.70" 1.000E-01 0.500 F 0.278 -0.233 20.2 R 0.70 0.40 o 691 0.63 Yes Yes
2018FV O C K 2018-04-16.38812 1.000E-05 13:52:58.050 1.500E-01 0.500 F 0.146 -0.008 -02° 35' 26.30" 1.000E-01 0.500 F 0.186 0.043 o 691 0.10 Yes No
2013JN22 O C K 2018-04-16.40451 1.000E-05 14:27:16.000 1.500E-01 0.500 F 0.321 -0.126 +07° 25' 59.20" 1.000E-01 0.500 F 0.283 -0.092 o 691 0.32 Yes No
2017RP2 O C K 2018-04-16.40787 1.000E-05 14:10:02.660 1.500E-01 0.500 F 0.255 0.245 +03° 42' 23.20" 1.000E-01 0.500 F 0.229 0.132 o 691 0.57 Yes No
2018GG2 O C K 2018-04-16.42729 1.000E-05 15:46:15.680 1.500E-01 0.500 F 0.146 -0.546 +30° 31' 36.60" 1.000E-01 0.500 F 0.344 -0.147 o 691 1.14 Yes No
2013JN22 O C K 2018-04-16.43058 1.000E-05 14:27:11.180 1.500E-01 0.500 F 0.321 0.159 +07° 26' 01.00" 1.000E-01 0.500 F 0.283 0.285 o 691 0.66 Yes No
2017RP2 O C K 2018-04-16.43394 1.000E-05 14:09:58.210 1.500E-01 0.500 F 0.255 0.202 +03° 42' 29.90" 1.000E-01 0.500 F 0.229 0.085 o 691 0.45 Yes No
2013JN22 O C K 2018-04-16.45581 1.000E-05 14:27:06.480 1.500E-01 0.500 F 0.321 -0.249 +07° 26' 01.90" 1.000E-01 0.500 F 0.283 -0.148 o 691 0.59 Yes No
2017RP2 O C K 2018-04-16.45916 1.000E-05 14:09:54.040 1.500E-01 0.500 F 0.268 1.445 +03° 42' 35.80" 1.000E-01 0.500 F 0.202 -0.429 o 691 3.08 Yes No
2018GG2 O C K 2018-04-16.47723 1.000E-05 15:46:01.950 1.500E-01 0.500 F 0.146 -0.230 +30° 34' 11.40" 1.000E-01 0.500 F 0.344 0.262 o 691 0.70 Yes No
2018BA7 O C K 2018-04-18.13961 1.000E-05 08:23:26.730 1.500E-01 0.500 F 0.108 -1.244 +10° 16' 30.90" 1.000E-01 0.500 F 0.088 -0.133 o 691 2.51 Yes No
2018BA7 O C K 2018-04-18.18018 1.000E-05 08:23:30.580 1.500E-01 0.500 F 0.108 -0.082 +10° 16' 06.70" 1.000E-01 0.500 F 0.088 -0.075 o 691 0.22 Yes No
2018EM2 O C 2018-04-18.20990 1.000E-05 10:54:04.940 1.500E-01 0.500 F 0.081 -0.268 +26° 08' 47.80" 1.000E-01 0.500 F 0.203 0.239 20.8 V 0.70 0.27 o 691 0.72 Yes Yes
2018FS1 O C H 2018-04-18.21354 1.000E-05 10:33:59.150 1.500E-01 0.500 F 0.206 -0.222 +25° 58' 51.00" 1.000E-01 0.500 F 0.247 0.221 20.5 R 0.70 -0.03 o 691 0.63 Yes Yes
2018EM2 O C 2018-04-18.21718 1.000E-05 10:54:04.460 1.500E-01 0.500 F 0.081 -0.094 +26° 08' 44.90" 1.000E-01 0.500 F 0.203 0.126 20.7 V 0.70 0.17 o 691 0.32 Yes Yes
2018FS1 O C H 2018-04-18.22082 1.000E-05 10:33:59.430 1.500E-01 0.500 F 0.206 0.222 +25° 58' 57.20" 1.000E-01 0.500 F 0.247 -0.297 20.5 R 0.70 -0.03 o 691 0.74 Yes Yes
2018EM2 O C 2018-04-18.22445 1.000E-05 10:54:03.910 1.500E-01 0.500 F 0.081 -0.882 +26° 08' 41.90" 1.000E-01 0.500 F 0.203 -0.070 20.4 V 0.70 -0.13 o 691 1.78 Yes Yes
2018FS1 O C H 2018-04-18.22808 1.000E-05 10:33:59.660 1.500E-01 0.500 F 0.206 -0.013 +25° 59' 04.20" 1.000E-01 0.500 F 0.247 0.022 20.5 R 0.70 -0.03 o 691 0.05 Yes Yes
2018FS3 O C H 2018-04-18.23567 1.000E-05 11:06:29.350 1.500E-01 0.500 F 0.072 0.167 +12° 47' 40.20" 1.000E-01 0.500 F 0.192 0.047 19.0 R 0.70 -0.07 o 691 0.35 Yes Yes
2018FS3 O C H 2018-04-18.23722 1.000E-05 11:06:29.180 1.500E-01 0.500 F 0.072 -0.009 +12° 47' 44.50" 1.000E-01 0.500 F 0.192 0.101 19.0 R 0.70 -0.07 o 691 0.20 Yes Yes
2018FS3 O C H 2018-04-18.23877 1.000E-05 11:06:29.010 1.500E-01 0.500 F 0.072 -0.187 +12° 47' 48.60" 1.000E-01 0.500 F 0.192 -0.044 18.9 R 0.70 -0.17 o 691 0.38 Yes Yes
2018FJ4 O C K 2018-04-18.24517 1.000E-05 11:50:05.050 1.500E-01 0.500 F 0.294 0.047 -00° 34' 09.20" 1.000E-01 0.500 F 0.097 0.372 o 691 0.75 Yes No
2018FJ4 O C K 2018-04-18.25866 1.000E-05 11:50:03.530 1.500E-01 0.500 F 0.294 -0.424 -00° 33' 59.30" 1.000E-01 0.500 F 0.097 -0.394 o 691 1.16 Yes No
2018FJ4 O C K 2018-04-18.27216 1.000E-05 11:50:02.060 1.500E-01 0.500 F 0.294 -0.151 -00° 33' 48.30" 1.000E-01 0.500 F 0.097 -0.068 o 691 0.33 Yes No
2018EE O C 2018-04-18.28767 1.000E-05 13:12:45.750 1.500E-01 0.500 F 0.321 -0.005 +12° 34' 15.40" 1.000E-01 0.500 F 0.239 0.220 20.4 V 0.70 0.07 o 691 0.44 Yes Yes
2018EE O C 2018-04-18.28958 1.000E-05 13:12:45.850 1.500E-01 0.500 F 0.321 -0.209 +12° 34' 10.90" 1.000E-01 0.500 F 0.239 0.112 20.3 V 0.70 -0.03 o 691 0.48 Yes Yes
2018EE O C 2018-04-18.29148 1.000E-05 13:12:45.970 1.500E-01 0.500 F 0.321 -0.112 +12° 34' 06.40" 1.000E-01 0.500 F 0.239 -0.017 20.3 V 0.70 -0.03 o 691 0.23 Yes Yes
2008GH110 O C 2018-04-18.29461 1.000E-05 13:36:04.840 1.500E-01 0.500 F 0.192 -0.279 -06° 47' 31.50" 1.000E-01 0.500 F -0.005 0.114 18.7 V 0.70 0.30 o 691 0.61 Yes Yes
2018GE2 O C H 2018-04-18.29593 1.000E-05 13:49:18.820 1.500E-01 0.500 F 0.263 0.154 -06° 54' 47.20" 1.000E-01 0.500 F 0.030 -0.176 19.9 R 0.70 0.49 o 691 0.47 Yes Yes
2018GE2 O C H 2018-04-18.29857 1.000E-05 13:49:18.090 1.500E-01 0.500 F 0.263 0.032 -06° 54' 52.20" 1.000E-01 0.500 F 0.030 -0.060 19.5 R 0.70 0.09 o 691 0.14 Yes Yes
2008GH110 O C 2018-04-18.29990 1.000E-05 13:36:04.370 1.500E-01 0.500 F 0.192 -0.041 -06° 47' 03.80" 1.000E-01 0.500 F -0.005 0.072 18.7 V 0.70 0.29 o 691 0.16 Yes Yes
2018GE2 O C H 2018-04-18.30122 1.000E-05 13:49:17.360 1.500E-01 0.500 F 0.263 -0.049 -06° 54' 57.10" 1.000E-01 0.500 F 0.030 0.163 19.8 R 0.70 0.39 o 691 0.34 Yes Yes
2013JN22 O C 2018-04-18.30434 1.000E-05 14:21:36.550 1.500E-01 0.500 F 0.287 -0.092 +07° 27' 05.20" 1.000E-01 0.500 F 0.312 -0.148 20.4 V 0.70 -0.25 o 691 0.35 Yes Yes
2013JN22 O C 2018-04-18.30590 1.000E-05 14:21:36.270 1.500E-01 0.500 F 0.287 -0.088 +07° 27' 05.20" 1.000E-01 0.500 F 0.312 -0.168 20.6 V 0.70 -0.05 o 691 0.39 Yes Yes
2013JN22 O C 2018-04-18.30746 1.000E-05 14:21:36.000 1.500E-01 0.500 F 0.287 0.064 +07° 27' 05.20" 1.000E-01 0.500 F 0.312 -0.188 20.6 V 0.70 -0.05 o 691 0.40 Yes Yes
2018GV5 O C K 2018-04-18.31225 1.000E-05 14:28:58.690 1.500E-01 0.500 F 0.300 0.249 -18° 25' 54.20" 1.000E-01 0.500 F 0.064 0.287 o 691 0.76 Yes No
2018GV5 O C K 2018-04-18.32296 1.000E-05 14:28:57.310 1.500E-01 0.500 F 0.300 0.064 -18° 26' 00.30" 1.000E-01 0.500 F 0.064 -0.126 o 691 0.29 Yes No
2018GV5 O C K 2018-04-18.33369 1.000E-05 14:28:55.940 1.500E-01 0.500 F 0.300 0.062 -18° 26' 06.10" 1.000E-01 0.500 F 0.064 -0.244 o 691 0.51 Yes No
2018GG4 O C K 2018-04-18.34796 1.000E-05 14:34:23.840 1.500E-01 0.500 F 0.214 -0.574 -11° 09' 21.40" 1.000E-01 0.500 F 0.089 -0.045 o 691 1.17 Yes No
2018GG4 O C K 2018-04-18.35090 1.000E-05 14:34:26.310 1.500E-01 0.500 F 0.214 0.097 -11° 09' 49.90" 1.000E-01 0.500 F 0.089 -0.098 o 691 0.28 Yes No
2018GA4 O C K 2018-04-18.35876 1.000E-05 15:18:54.750 1.500E-01 0.500 F 0.203 0.594 -09° 10' 52.20" 1.000E-01 0.500 F 0.132 0.424 o 691 1.47 Yes No
2000SS164 O C 2018-04-18.36214 1.000E-05 15:30:31.050 1.500E-01 0.612 F 0.103 -0.402 -06° 56' 45.90" 1.000E-01 0.612 F 0.207 0.346 20.0 V 0.70 -0.07 o 691 0.87 Yes Yes
2000SS164 O C 2018-04-18.36634 1.000E-05 15:30:30.840 1.500E-01 0.612 F 0.103 0.245 -06° 56' 43.40" 1.000E-01 0.612 F 0.207 1.230 19.7 V 0.70 -0.37 o 691 2.05 Yes Yes
2018GA4 O C K 2018-04-18.37135 1.000E-05 15:18:57.880 1.500E-01 0.500 F 0.203 0.303 -09° 09' 09.80" 1.000E-01 0.500 F 0.132 0.465 o 691 1.12 Yes No
2000SS164 O C 2018-04-18.37476 1.000E-05 15:30:30.300 1.500E-01 0.612 F 0.103 -0.227 -06° 56' 41.20" 1.000E-01 0.612 F 0.207 0.190 20.0 V 0.70 -0.07 o 691 0.48 Yes Yes
2000SS164 O C 2018-04-18.37895 1.000E-05 15:30:30.050 1.500E-01 0.612 F 0.103 -0.183 -06° 56' 40.10" 1.000E-01 0.612 F 0.207 -0.324 19.9 V 0.70 -0.17 o 691 0.61 Yes Yes
2018GA4 O C K 2018-04-18.38396 1.000E-05 15:19:01.000 1.500E-01 0.500 F 0.209 -0.219 -09° 07' 27.40" 1.000E-01 0.500 F 0.145 0.225 o 691 0.63 Yes No
2000SS164 O C 2018-04-18.38735 1.000E-05 15:30:29.540 1.500E-01 0.612 F 0.103 -0.224 -06° 56' 36.60" 1.000E-01 0.612 F 0.207 -0.059 20.0 V 0.70 -0.07 o 691 0.38 Yes Yes
2000SS164 O C 2018-04-18.39155 1.000E-05 15:30:29.270 1.500E-01 0.612 F 0.103 -0.468 -06° 56' 35.10" 1.000E-01 0.612 F 0.207 -0.177 19.9 V 0.70 -0.17 o 691 0.82 Yes Yes
2016CX264 O C 2018-04-18.42381 1.000E-05 14:43:56.580 1.500E-01 0.500 F 0.238 -0.268 -10° 29' 42.00" 1.000E-01 0.500 F 0.073 -0.055 19.9 V 0.70 -0.03 o 691 0.55 Yes Yes
2016CX264 O C 2018-04-18.42952 1.000E-05 14:43:55.970 1.500E-01 0.500 F 0.238 -0.235 -10° 29' 44.90" 1.000E-01 0.500 F 0.073 -0.129 20.0 V 0.70 0.07 o 691 0.54 Yes Yes
2016CX264 O C 2018-04-18.43522 1.000E-05 14:43:55.370 1.500E-01 0.500 F 0.238 -0.077 -10° 29' 47.60" 1.000E-01 0.500 F 0.073 -0.010 19.9 V 0.70 -0.03 o 691 0.16 Yes Yes
2015UC67 O C K 2018-04-18.46382 1.000E-05 21:06:07.590 1.500E-01 0.500 F -0.052 0.236 -02° 00' 48.60" 1.000E-01 0.500 F 0.166 -0.171 o 691 0.59 Yes No
2015UC67 O C K 2018-04-18.47704 1.000E-05 21:06:10.210 1.500E-01 0.500 F -0.052 0.263 -02° 00' 18.00" 1.000E-01 0.500 F 0.166 -0.667 o 691 1.44 Yes No
2018GE2 O C H 2018-04-19.19114 1.000E-05 13:47:13.220 1.500E-01 0.612 F 0.260 -0.580 -07° 20' 33.80" 1.000E-01 0.612 F 0.083 -0.007 20.3 R 0.70 0.68 o 691 0.95 Yes Yes
2018GE2 O C H 2018-04-19.19305 1.000E-05 13:47:12.890 1.500E-01 0.612 F 0.260 0.427 -07° 20' 36.90" 1.000E-01 0.612 F 0.083 0.131 20.1 R 0.70 0.48 o 691 0.73 Yes Yes
2018GE2 O C H 2018-04-19.19495 1.000E-05 13:47:12.430 1.500E-01 0.612 F 0.260 -0.512 -07° 20' 39.90" 1.000E-01 0.612 F 0.083 0.349 20.1 R 0.70 0.48 o 691 1.01 Yes Yes
2018GY1 O C H 2018-04-19.21891 1.000E-05 13:11:57.350 1.500E-01 0.500 F 0.232 -0.420 +29° 08' 42.20" 1.000E-01 0.500 F 0.176 -0.297 18.6 R 0.70 0.07 o 691 1.04 Yes Yes
2018GY1 O C H 2018-04-19.22011 1.000E-05 13:11:56.910 1.500E-01 0.500 F 0.232 -0.198 +29° 08' 47.60" 1.000E-01 0.500 F 0.176 0.093 18.7 R 0.70 0.17 o 691 0.44 Yes Yes
2018GY1 O C H 2018-04-19.22133 1.000E-05 13:11:56.450 1.500E-01 0.500 F 0.232 -0.136 +29° 08' 52.90" 1.000E-01 0.500 F 0.176 0.301 18.5 R 0.70 -0.03 o 691 0.67 Yes Yes
2018FO5 O C K 2018-04-19.25404 1.000E-05 09:39:01.450 1.500E-01 0.500 F 0.100 -0.212 -04° 20' 00.80" 1.000E-01 0.500 F -0.014 0.101 20.7 R 0.70 -0.28 o 691 0.47 Yes Yes
2000AF205 O C 2018-04-19.26096 1.000E-05 10:47:30.810 1.500E-01 0.500 F 0.144 -0.454 +03° 56' 19.90" 1.000E-01 0.500 F 0.204 0.101 21.0 V 0.70 -0.43 o 691 0.93 Yes Yes
2018FO5 O C K 2018-04-19.26720 1.000E-05 09:39:01.150 1.500E-01 0.500 F 0.100 -0.145 -04° 19' 46.60" 1.000E-01 0.500 F -0.014 0.064 20.1 R 0.70 -0.88 o 691 0.32 Yes Yes
2000AF205 O C 2018-04-19.27406 1.000E-05 10:47:29.600 1.500E-01 0.500 F 0.144 -0.748 +03° 56' 32.50" 1.000E-01 0.500 F 0.204 -0.105 21.4 V 0.70 -0.03 o 691 1.51 Yes Yes
2018FO5 O C K 2018-04-19.28030 1.000E-05 09:39:00.860 1.500E-01 0.500 F 0.100 -0.030 -04° 19' 32.20" 1.000E-01 0.500 F -0.014 0.287 20.5 R 0.70 -0.48 o 691 0.58 Yes Yes
2000AF205 O C 2018-04-19.28716 1.000E-05 10:47:28.420 1.500E-01 0.500 F 0.144 -0.689 +03° 56' 45.50" 1.000E-01 0.500 F 0.204 0.104 21.8 V 0.70 0.37 o 691 1.40 Yes Yes
2018EM2 O C 2018-04-19.30042 1.000E-05 10:53:02.950 1.500E-01 0.500 F 0.081 -0.113 +26° 01' 29.70" 1.000E-01 0.500 F 0.203 0.050 20.4 V 0.70 -0.13 o 691 0.25 Yes Yes
2018EM2 O C 2018-04-19.30336 1.000E-05 10:53:02.770 1.500E-01 0.500 F 0.081 -0.094 +26° 01' 28.40" 1.000E-01 0.500 F 0.203 0.111 20.3 V 0.70 -0.23 o 691 0.29 Yes Yes
2018EM2 O C 2018-04-19.30631 1.000E-05 10:53:02.600 1.500E-01 0.500 F 0.081 0.063 +26° 01' 27.10" 1.000E-01 0.500 F 0.203 0.179 20.4 V 0.70 -0.13 o 691 0.38 Yes Yes
2008GH110 O C 2018-04-19.31421 1.000E-05 13:34:42.930 1.500E-01 0.500 F 0.192 0.410 -05° 19' 47.40" 1.000E-01 0.500 F -0.012 0.147 19.6 V 0.70 1.06 o 691 0.88 Yes Yes
2018GE2 O C 2018-04-19.31577 1.000E-05 13:46:45.540 1.500E-01 0.612 F 0.260 -0.253 -07° 23' 54.50" 1.000E-01 0.612 F 0.083 0.146 20.7 V 0.70 0.65 o 691 0.48 Yes Yes
2008GH110 O C 2018-04-19.31704 1.000E-05 13:34:42.650 1.500E-01 0.500 F 0.192 -0.035 -05° 19' 33.20" 1.000E-01 0.500 F -0.012 -0.030 18.9 V 0.70 0.36 o 691 0.10 Yes Yes
2018GE2 O C 2018-04-19.31830 1.000E-05 13:46:45.000 1.500E-01 0.612 F 0.260 0.265 -07° 23' 58.50" 1.000E-01 0.612 F 0.083 -0.012 20.3 V 0.70 0.25 o 691 0.44 Yes Yes
2008GH110 O C 2018-04-19.31956 1.000E-05 13:34:42.390 1.500E-01 0.500 F 0.192 -0.592 -05° 19' 20.10" 1.000E-01 0.500 F -0.012 0.268 18.9 V 0.70 0.36 o 691 1.31 Yes Yes
2018GE2 O C 2018-04-19.32084 1.000E-05 13:46:44.400 1.500E-01 0.612 F 0.260 -0.083 -07° 24' 02.40" 1.000E-01 0.612 F 0.083 -0.064 20.2 V 0.70 0.15 o 691 0.17 Yes Yes
2016CX264 O C 2018-04-19.32420 1.000E-05 14:42:23.700 1.500E-01 0.500 F 0.238 -0.412 -10° 37' 18.80" 1.000E-01 0.500 F 0.073 0.070 19.8 V 0.70 -0.07 o 691 0.84 Yes Yes
2016CX264 O C 2018-04-19.32833 1.000E-05 14:42:23.250 1.500E-01 0.500 F 0.238 -0.266 -10° 37' 20.90" 1.000E-01 0.500 F 0.073 0.094 19.9 V 0.70 0.03 o 691 0.57 Yes Yes
2018CZ13 O C H 2018-04-19.33037 1.000E-05 14:44:06.500 1.500E-01 0.500 F 0.273 -0.325 -25° 29' 07.10" 1.000E-01 0.500 F 0.357 0.138 18.9 R 0.70 -0.11 o 691 0.74 Yes Yes
2016CX264 O C 2018-04-19.33240 1.000E-05 14:42:22.820 1.500E-01 0.500 F 0.238 0.079 -10° 37' 23.20" 1.000E-01 0.500 F 0.073 -0.115 19.9 V 0.70 0.03 o 691 0.28 Yes Yes
2018CZ13 O C H 2018-04-19.33444 1.000E-05 14:44:08.330 1.500E-01 0.500 F 0.273 -0.130 -25° 29' 09.50" 1.000E-01 0.500 F 0.357 -0.049 19.3 R 0.70 0.29 o 691 0.29 Yes Yes
2018EQ4 O C H 2018-04-19.34172 1.000E-05 16:47:38.220 1.500E-01 0.500 F 0.054 0.034 +11° 57' 02.00" 1.000E-01 0.500 F 0.271 -0.208 19.7 R 0.70 0.10 o 691 0.42 Yes Yes
2018EQ4 O C H 2018-04-19.34327 1.000E-05 16:47:38.030 1.500E-01 0.500 F 0.054 0.058 +11° 57' 02.50" 1.000E-01 0.500 F 0.271 -0.123 19.6 R 0.70 0.00 o 691 0.27 Yes Yes
2018EQ4 O C H 2018-04-19.34483 1.000E-05 16:47:37.820 1.500E-01 0.500 F 0.054 -0.192 +11° 57' 02.80" 1.000E-01 0.500 F 0.271 -0.241 19.4 R 0.70 -0.20 o 691 0.62 Yes Yes
2018GS1 O C H 2018-04-19.35450 1.000E-05 12:48:04.400 1.500E-01 0.500 F 0.147 -0.482 +12° 11' 38.00" 1.000E-01 0.500 F 0.270 -0.411 19.8 R 0.70 -0.15 o 691 1.30 Yes Yes
2018GS1 O C H 2018-04-19.35584 1.000E-05 12:48:04.010 1.500E-01 0.500 F 0.147 -0.472 +12° 11' 33.10" 1.000E-01 0.500 F 0.270 0.586 19.8 R 0.70 -0.15 o 691 1.54 Yes Yes
2018GS1 O C H 2018-04-19.35716 1.000E-05 12:48:03.650 1.500E-01 0.500 F 0.147 -0.110 +12° 11' 26.80" 1.000E-01 0.500 F 0.270 0.096 19.7 R 0.70 -0.25 o 691 0.30 Yes Yes
2018FB1 O C H 2018-04-19.36417 1.000E-05 13:09:54.730 1.500E-01 0.559 F 0.325 -0.375 -00° 41' 49.50" 1.000E-01 0.559 F 0.156 0.313 20.1 R 0.70 0.26 o 691 0.88 Yes Yes
2018FB1 O C H 2018-04-19.36727 1.000E-05 13:09:54.070 1.500E-01 0.559 F 0.325 -0.608 -00° 41' 54.50" 1.000E-01 0.559 F 0.156 0.083 19.8 R 0.70 -0.04 o 691 1.11 Yes Yes
2018FB1 O C 2018-04-19.37041 1.000E-05 13:09:53.430 1.500E-01 0.559 F 0.325 -0.421 -00° 41' 59.50" 1.000E-01 0.559 F 0.156 -0.086 20.1 V 0.70 -0.14 o 691 0.78 Yes Yes
2018FB1 O C 2018-04-19.37197 1.000E-05 13:09:53.090 1.500E-01 0.559 F 0.325 -0.660 -00° 42' 02.20" 1.000E-01 0.559 F 0.156 -0.386 19.8 V 0.70 -0.44 o 691 1.39 Yes Yes
2018FB1 O C 2018-04-19.37353 1.000E-05 13:09:52.830 1.500E-01 0.559 F 0.325 0.300 -00° 42' 04.50" 1.000E-01 0.559 F 0.156 -0.287 20.0 V 0.70 -0.24 o 691 0.75 Yes Yes
2018GX4 O C 2018-04-19.37773 1.000E-05 13:36:29.210 1.500E-01 0.500 F 0.195 -0.360 +11° 53' 25.30" 1.000E-01 0.500 F 0.172 -0.372 21.0 V 0.70 0.14 o 691 1.04 Yes Yes
2018GX4 O C 2018-04-19.37934 1.000E-05 13:36:29.000 1.500E-01 0.500 F 0.195 -0.414 +11° 53' 26.30" 1.000E-01 0.500 F 0.172 0.183 20.9 V 0.70 0.04 o 691 0.91 Yes Yes
2018GX4 O C 2018-04-19.38093 1.000E-05 13:36:28.780 1.500E-01 0.500 F 0.195 -0.652 +11° 53' 26.60" 1.000E-01 0.500 F 0.172 0.045 21.3 V 0.70 0.44 o 691 1.31 Yes Yes
2018GX4 O C K 2018-04-19.38414 1.000E-05 13:36:28.410 1.500E-01 0.500 F 0.195 -0.046 +11° 53' 27.40" 1.000E-01 0.500 F 0.172 -0.040 20.5 R 0.70 0.04 o 691 0.12 Yes Yes
2018EE O C H 2018-04-19.39227 1.000E-05 13:14:01.960 1.500E-01 0.612 F 0.231 -0.390 +11° 52' 46.00" 1.000E-01 0.612 F 0.179 0.188 20.5 R 0.70 0.49 o 691 0.71 Yes Yes
2018EE O C H 2018-04-19.39405 1.000E-05 13:14:02.110 1.500E-01 0.612 F 0.231 0.267 +11° 52' 42.10" 1.000E-01 0.612 F 0.179 0.254 20.3 R 0.70 0.29 o 691 0.60 Yes Yes
2018EE O C H 2018-04-19.39583 1.000E-05 13:14:02.220 1.500E-01 0.612 F 0.231 0.335 +11° 52' 37.90" 1.000E-01 0.612 F 0.179 0.020 20.0 R 0.70 -0.01 o 691 0.55 Yes Yes
2018EE O C 2018-04-19.40338 1.000E-05 13:14:02.640 1.500E-01 0.612 F 0.231 -0.083 +11° 52' 21.10" 1.000E-01 0.612 F 0.179 0.047 20.9 V 0.70 0.49 o 691 0.16 Yes Yes
2018EE O C 2018-04-19.40517 1.000E-05 13:14:02.730 1.500E-01 0.612 F 0.231 -0.329 +11° 52' 17.30" 1.000E-01 0.612 F 0.179 0.237 20.3 V 0.70 -0.11 o 691 0.66 Yes Yes
2018EE O C 2018-04-19.40695 1.000E-05 13:14:02.810 1.500E-01 0.612 F 0.231 -0.715 +11° 52' 13.60" 1.000E-01 0.612 F 0.179 0.505 20.4 V 0.70 -0.01 o 691 1.43 Yes Yes
2018GT3 O C K 2018-04-19.46713 1.000E-05 14:17:38.330 1.500E-01 0.500 F 0.195 -0.327 +02° 48' 15.70" 1.000E-01 0.500 F 0.225 0.027 o 691 0.67 Yes No
2018GA4 O C K 2018-04-19.47108 1.000E-05 15:23:55.840 1.500E-01 0.500 F -0.060 -0.256 -06° 36' 22.10" 1.000E-01 0.500 F 0.259 -0.197 o 691 0.65 Yes No
2018GT3 O C K 2018-04-19.47504 1.000E-05 14:17:37.690 1.500E-01 0.500 F 0.195 -0.376 +02° 49' 22.80" 1.000E-01 0.500 F 0.225 0.166 o 691 0.84 Yes No
2018GA4 O C K 2018-04-19.47892 1.000E-05 15:23:57.850 1.500E-01 0.500 F -0.060 -0.605 -06° 35' 14.50" 1.000E-01 0.500 F 0.259 0.348 o 691 1.40 Yes No
2018GT3 O C K 2018-04-19.48287 1.000E-05 14:17:37.100 1.500E-01 0.500 F 0.195 0.170 +02° 50' 29.60" 1.000E-01 0.500 F 0.225 0.700 o 691 1.48 Yes No
2018GA4 O C K 2018-04-19.48676 1.000E-05 15:23:59.950 1.500E-01 0.500 F -0.060 0.314 -06° 34' 08.50" 1.000E-01 0.500 F 0.259 -0.739 o 691 1.62 Yes No
2018GY1 O C H 2018-04-20.46019 1.000E-05 13:03:37.510 1.500E-01 0.500 F 0.222 0.711 +30° 40' 58.20" 1.000E-01 0.500 F 0.228 -0.598 18.1 R 0.70 -0.24 o 691 1.87 Yes Yes
2018GY1 O C H 2018-04-20.46340 1.000E-05 13:03:35.970 1.500E-01 0.500 F 0.222 0.093 +30° 41' 13.40" 1.000E-01 0.500 F 0.228 -0.386 17.9 R 0.70 -0.44 o 691 0.80 Yes Yes
2018GY1 O C H 2018-04-20.46554 1.000E-05 13:03:34.950 1.500E-01 0.500 F 0.222 -0.243 +30° 41' 23.60" 1.000E-01 0.500 F 0.228 -0.178 18.1 R 0.70 -0.24 o 691 0.61 Yes Yes
2018GW4 O C K 2018-04-20.46905 1.000E-05 16:31:29.300 1.500E-01 0.500 F 0.130 0.367 +28° 17' 23.20" 1.000E-01 0.500 F 0.210 0.550 o 691 1.36 Yes No
2018GW4 O C K 2018-04-20.47686 1.000E-05 16:31:30.920 1.500E-01 0.500 F 0.130 -0.446 +28° 17' 37.90" 1.000E-01 0.500 F 0.210 -0.059 o 691 0.92 Yes No
2018GW4 O C K 2018-04-20.48467 1.000E-05 16:31:32.670 1.500E-01 0.500 F 0.130 0.431 +28° 17' 53.00" 1.000E-01 0.500 F 0.210 -0.246 o 691 1.01 Yes No
2018FS3 O C 2018-04-21.12871 1.000E-05 11:02:31.410 1.500E-01 0.500 F 0.172 -0.393 +15° 06' 39.40" 1.000E-01 0.500 F 0.225 0.062 19.6 V 0.70 0.18 o 691 0.80 Yes Yes
2018FS3 O C 2018-04-21.13137 1.000E-05 11:02:31.140 1.500E-01 0.500 F 0.172 -0.395 +15° 06' 47.70" 1.000E-01 0.500 F 0.225 0.256 19.7 V 0.70 0.28 o 691 0.95 Yes Yes
2018FS3 O C 2018-04-21.13404 1.000E-05 11:02:30.860 1.500E-01 0.500 F 0.172 -0.523 +15° 06' 55.50" 1.000E-01 0.500 F 0.225 -0.078 19.4 V 0.70 -0.02 o 691 1.06 Yes Yes
2018GY4 O C K 2018-04-21.13990 1.000E-05 09:22:08.070 1.500E-01 0.500 F 0.042 -0.531 -19° 02' 24.00" 1.000E-01 0.500 F -0.147 0.840 o 691 2.00 Yes No
2018GY4 O C K 2018-04-21.14616 1.000E-05 09:22:08.070 1.500E-01 0.500 F 0.042 -1.070 -19° 02' 14.60" 1.000E-01 0.500 F -0.147 0.508 o 691 2.39 Yes No
2018GY4 O C K 2018-04-21.15244 1.000E-05 09:22:08.250 1.500E-01 0.500 F 0.042 0.938 -19° 02' 05.20" 1.000E-01 0.500 F -0.147 0.141 o 691 1.91 Yes No
2018FH O C K 2018-04-21.15921 1.000E-05 08:11:18.180 1.500E-01 0.500 F 0.190 0.031 -09° 55' 29.30" 1.000E-01 0.500 F -0.023 -0.777 o 691 1.59 Yes No
2018FH O C K 2018-04-21.16602 1.000E-05 08:11:17.960 1.500E-01 0.500 F 0.190 -0.094 -09° 55' 38.70" 1.000E-01 0.500 F -0.023 0.193 o 691 0.44 Yes No
2018FH O C K 2018-04-21.17280 1.000E-05 08:11:17.750 1.500E-01 0.500 F 0.190 -0.101 -09° 55' 49.30" 1.000E-01 0.500 F -0.023 -0.086 o 691 0.27 Yes No
2018GE2 O C K 2018-04-21.18184 1.000E-05 13:43:31.710 1.500E-01 0.500 F 0.248 -0.534 -08° 03' 38.90" 1.000E-01 0.500 F 0.151 -0.316 20.4 R 0.70 0.29 o 691 1.24 Yes Yes
2018GE2 O C K 2018-04-21.18527 1.000E-05 13:43:31.230 1.500E-01 0.500 F 0.248 -0.052 -08° 03' 43.00" 1.000E-01 0.500 F 0.151 -0.342 20.1 R 0.70 -0.02 o 691 0.69 Yes Yes
2018GE2 O C K 2018-04-21.18871 1.000E-05 13:43:30.680 1.500E-01 0.500 F 0.248 -0.532 -08° 03' 46.10" 1.000E-01 0.500 F 0.151 0.632 20.1 R 0.70 -0.02 o 691 1.66 Yes Yes
2018GZ4 O C K 2018-04-21.23604 1.000E-05 11:11:49.040 1.500E-01 0.500 F 0.086 0.120 +04° 36' 26.10" 1.000E-01 0.500 F 0.138 0.237 o 691 0.54 Yes No
2018GZ4 O C K 2018-04-21.24372 1.000E-05 11:11:48.950 1.500E-01 0.500 F 0.086 -0.234 +04° 36' 35.20" 1.000E-01 0.500 F 0.138 0.345 o 691 0.85 Yes No
2018GZ4 O C K 2018-04-21.25141 1.000E-05 11:11:48.920 1.500E-01 0.500 F 0.086 0.299 +04° 36' 44.10" 1.000E-01 0.500 F 0.138 0.244 o 691 0.78 Yes No
2018GN4 O C K 2018-04-21.26073 1.000E-05 11:30:29.640 1.500E-01 0.500 F 0.279 -0.036 +00° 49' 23.20" 1.000E-01 0.500 F 0.089 0.088 o 691 0.21 Yes No
2018GN4 O C K 2018-04-21.27130 1.000E-05 11:30:30.160 1.500E-01 0.500 F 0.279 -0.281 +00° 48' 55.30" 1.000E-01 0.500 F 0.089 0.620 o 691 1.47 Yes No

[1-200] [201-400] [401-600] [601-800] [801-1000] [1001-1200] [1201-1400] [1401-1600] [1601-1800] [1801-2000] [2001-2200] [2201-2400] [2401-2600] [2601-2800] [2801-3000] [3001-3200] [3201-3400] [3401-3600] [3601-3800] [3801-4000] [4001-4200] [4201-4400] [4401-4600] [4601-4800] [4801-5000] [5001-5200] [5201-5400] [5401-5600] [5601-5800] [5801-6000] [6001-6200] [6201-6400] [6401-6600] [6601-6800] [6801-7000] [7001-7200] [7201-7400] [7401-7600] [7601-7800] [7801-8000] [8001-8200] [8201-8400] [8401-8600] [8601-8800] [8801-9000] [9001-9200] [9201-9400] [9401-9600] [9601-9800] [9801-10000] [10001-10200] [10201-10400] [10401-10600] [10601-10800] [10801-11000] [11001-11200] [11201-11400] [11401-11600] [11601-11800] [11801-12000] [12001-12200] [12201-12400] [12401-12600] [12601-12800] [12801-13000] [13001-13200] [13201-13400] [13401-13600] [13601-13800] [13801-14000] [14001-14200] [14201-14400] [14401-14600] [14601-14800] [14801-15000] [15001-15200] [15201-15400] [15401-15600] [15601-15800] [15801-16000] [16001-16200] [16201-16400] [16401-16600] [16601-16800] [16801-17000] [17001-17200] [17201-17400] [17401-17600] [17601-17800] [17801-18000] [18001-18200] [18201-18400] [18401-18600] [18601-18800] [18801-19000] [19001-19200] [19201-19400] [19401-19600] [19601-19800] [19801-20000] [20001-20200] [20201-20400] [20401-20600] [20601-20800] [20801-21000] [21001-21200] [21201-21400] [21401-21600] [21601-21800] [21801-22000] [22001-22200] [22201-22400] [22401-22600] [22601-22800] [22801-23000] [23001-23200] [23201-23400] [23401-23600] [23601-23800] [23801-24000] [24001-24200] [24201-24400] [24401-24600] [24601-24800] [24801-25000] [25001-25200] [25201-25400] [25401-25600] [25601-25800] [25801-26000] [26001-26200] [26201-26400] [26401-26600] [26601-26800] [26801-27000] [27001-27200] [27201-27400] [27401-27600] [27601-27800] [27801-28000] [28001-28200] [28201-28400] [28401-28600] [28601-28800] [28801-29000] [29001-29200] [29201-29400] [29401-29600] [29601-29800] [29801-30000] [30001-30200] [30201-30400] [30401-30600] [30601-30800] [30801-31000] [31001-31200] [31201-31400] [31401-31600] [31601-31800] [31801-32000] [32001-32200] [32201-32400] [32401-32600] [32601-32800] [32801-33000] [33001-33200] [33201-33400] [33401-33600] [33601-33800] [33801-34000] [34001-34200] [34201-34400] [34401-34600] [34601-34800] [34801-35000] [35001-35200] [35201-35400] [35401-35600] [35601-35800] [35801-36000] [36001-36200] [36201-36400] [36401-36600] [36601-36800] [36801-37000] [37001-37200] [37201-37400] [37401-37600] [37601-37800] [37801-38000] [38001-38200] [38201-38400] [38401-38600] [38601-38800] [38801-39000] [39001-39200] [39201-39400] [39401-39600] [39601-39800] [39801-40000] [40001-40200] [40201-40400] [40401-40600] [40601-40800] [40801-41000] [41001-41200] [41201-41400] [41401-41600] [41601-41800] [41801-42000] [42001-42200] [42201-42400] [42401-42600] [42601-42800] [42801-43000] [43001-43200] [43201-43400] [43401-43600] [43601-43800] [43801-44000] [44001-44200] [44201-44400] [44401-44600] [44601-44800] [44801-45000] [45001-45200] [45201-45400] [45401-45600] [45601-45800] [45801-46000] [46001-46200] [46201-46400] [46401-46600] [46601-46800] [46801-47000] [47001-47200] [47201-47400] [47401-47600] [47601-47800] [47801-48000] [48001-48200] [48201-48400] [48401-48600] [48601-48800] [48801-49000] [49001-49200] [49201-49400] [49401-49600] [49601-49800] [49801-50000] [50001-50200] [50201-50388]